sensor_id;sensor_type;location;lat;lon;timestamp;pressure;altitude;pressure_sealevel;temperature;humidity
2192;BME280;1102;49.718;11.902;2022-10-31T00:01:28;96812.78;;;7.13;100.00
2192;BME280;1102;49.718;11.902;2022-10-31T00:03:56;96796.84;;;7.09;100.00
2192;BME280;1102;49.718;11.902;2022-10-31T00:06:22;96777.91;;;6.93;100.00
2192;BME280;1102;49.718;11.902;2022-10-31T00:08:54;96807.44;;;7.18;100.00
2192;BME280;1102;49.718;11.902;2022-10-31T00:11:21;96756.06;;;6.65;100.00
2192;BME280;1102;49.718;11.902;2022-10-31T00:13:48;96761.13;;;6.62;100.00
2192;BME280;1102;49.718;11.902;2022-10-31T00:16:20;96757.41;;;6.49;100.00
2192;BME280;1102;49.718;11.902;2022-10-31T00:18:51;96744.66;;;6.42;100.00
2192;BME280;1102;49.718;11.902;2022-10-31T00:21:19;96786.28;;;6.81;100.00
2192;BME280;1102;49.718;11.902;2022-10-31T00:23:46;96771.53;;;6.53;100.00
2192;BME280;1102;49.718;11.902;2022-10-31T00:26:14;96759.47;;;6.66;100.00
2192;BME280;1102;49.718;11.902;2022-10-31T00:28:41;96796.41;;;6.88;100.00
2192;BME280;1102;49.718;11.902;2022-10-31T00:31:10;96767.81;;;6.54;100.00
2192;BME280;1102;49.718;11.902;2022-10-31T00:33:39;96761.78;;;6.53;100.00
2192;BME280;1102;49.718;11.902;2022-10-31T00:36:07;96788.97;;;6.63;100.00
2192;BME280;1102;49.718;11.902;2022-10-31T00:38:34;96783.22;;;6.61;100.00
2192;BME280;1102;49.718;11.902;2022-10-31T00:41:01;96758.88;;;6.41;100.00
2192;BME280;1102;49.718;11.902;2022-10-31T00:43:27;96799.50;;;6.76;100.00
2192;BME280;1102;49.718;11.902;2022-10-31T00:45:54;96798.22;;;6.60;100.00
2192;BME280;1102;49.718;11.902;2022-10-31T00:48:23;96803.91;;;6.48;100.00
2192;BME280;1102;49.718;11.902;2022-10-31T00:50:51;96777.13;;;6.33;100.00
2192;BME280;1102;49.718;11.902;2022-10-31T00:53:18;96787.66;;;6.46;100.00
2192;BME280;1102;49.718;11.902;2022-10-31T00:55:45;96743.00;;;6.14;100.00
2192;BME280;1102;49.718;11.902;2022-10-31T00:58:12;96743.16;;;6.22;100.00
2192;BME280;1102;49.718;11.902;2022-10-31T01:00:40;96781.06;;;6.49;100.00
2192;BME280;1102;49.718;11.902;2022-10-31T01:03:07;96804.72;;;6.63;100.00
2192;BME280;1102;49.718;11.902;2022-10-31T01:05:37;96798.34;;;6.69;100.00
2192;BME280;1102;49.718;11.902;2022-10-31T01:08:04;96746.66;;;6.18;100.00
2192;BME280;1102;49.718;11.902;2022-10-31T01:10:30;96783.88;;;6.20;100.00
2192;BME280;1102;49.718;11.902;2022-10-31T01:12:57;96752.88;;;5.84;100.00
2192;BME280;1102;49.718;11.902;2022-10-31T01:15:24;96754.81;;;5.79;100.00
2192;BME280;1102;49.718;11.902;2022-10-31T01:17:51;96756.94;;;5.96;100.00
2192;BME280;1102;49.718;11.902;2022-10-31T01:20:18;96806.53;;;6.16;100.00
2192;BME280;1102;49.718;11.902;2022-10-31T01:22:44;96778.53;;;5.92;100.00
2192;BME280;1102;49.718;11.902;2022-10-31T01:25:11;96797.88;;;6.15;100.00
2192;BME280;1102;49.718;11.902;2022-10-31T01:27:38;96781.59;;;6.13;100.00
2192;BME280;1102;49.718;11.902;2022-10-31T01:30:09;96767.09;;;6.02;100.00
2192;BME280;1102;49.718;11.902;2022-10-31T01:32:36;96767.00;;;6.07;100.00
2192;BME280;1102;49.718;11.902;2022-10-31T01:35:03;96766.16;;;6.12;100.00
2192;BME280;1102;49.718;11.902;2022-10-31T01:37:31;96742.19;;;6.00;100.00
2192;BME280;1102;49.718;11.902;2022-10-31T01:39:57;96803.78;;;6.40;100.00
2192;BME280;1102;49.718;11.902;2022-10-31T01:42:24;96799.09;;;6.37;100.00
2192;BME280;1102;49.718;11.902;2022-10-31T01:44:54;96805.09;;;6.23;100.00
2192;BME280;1102;49.718;11.902;2022-10-31T01:47:35;96799.84;;;6.23;100.00
2192;BME280;1102;49.718;11.902;2022-10-31T01:50:10;96805.59;;;6.07;100.00
2192;BME280;1102;49.718;11.902;2022-10-31T01:52:42;96784.75;;;5.97;100.00
2192;BME280;1102;49.718;11.902;2022-10-31T01:55:22;96813.63;;;6.15;100.00
2192;BME280;1102;49.718;11.902;2022-10-31T01:57:55;96761.81;;;5.83;100.00
2192;BME280;1102;49.718;11.902;2022-10-31T02:00:24;96749.97;;;5.67;100.00
2192;BME280;1102;49.718;11.902;2022-10-31T02:02:51;96767.25;;;5.92;100.00
2192;BME280;1102;49.718;11.902;2022-10-31T02:05:22;96815.25;;;6.11;100.00
2192;BME280;1102;49.718;11.902;2022-10-31T02:10:43;96789.19;;;5.77;100.00
2192;BME280;1102;49.718;11.902;2022-10-31T02:13:11;96787.34;;;5.59;100.00
2192;BME280;1102;49.718;11.902;2022-10-31T02:15:47;96743.59;;;5.36;100.00
2192;BME280;1102;49.718;11.902;2022-10-31T02:18:16;96759.63;;;5.53;100.00
2192;BME280;1102;49.718;11.902;2022-10-31T02:31:46;96797.00;;;5.82;100.00
2192;BME280;1102;49.718;11.902;2022-10-31T02:34:23;96757.50;;;5.55;100.00
2192;BME280;1102;49.718;11.902;2022-10-31T02:37:11;96805.53;;;5.93;100.00
2192;BME280;1102;49.718;11.902;2022-10-31T02:40:02;96786.00;;;5.80;100.00
2192;BME280;1102;49.718;11.902;2022-10-31T02:48:28;96791.34;;;5.75;100.00
2192;BME280;1102;49.718;11.902;2022-10-31T02:50:59;96752.53;;;5.34;100.00
2192;BME280;1102;49.718;11.902;2022-10-31T02:53:34;96803.31;;;5.62;100.00
2192;BME280;1102;49.718;11.902;2022-10-31T02:56:16;96771.59;;;5.40;100.00
2192;BME280;1102;49.718;11.902;2022-10-31T03:07:19;96791.88;;;5.72;100.00
2192;BME280;1102;49.718;11.902;2022-10-31T03:12:30;96797.63;;;5.74;100.00
2192;BME280;1102;49.718;11.902;2022-10-31T03:15:21;96780.97;;;5.65;100.00
2192;BME280;1102;49.718;11.902;2022-10-31T03:18:03;96781.47;;;5.67;100.00
2192;BME280;1102;49.718;11.902;2022-10-31T03:21:04;96774.97;;;5.41;100.00
2192;BME280;1102;49.718;11.902;2022-10-31T03:23:35;96772.69;;;5.34;100.00
2192;BME280;1102;49.718;11.902;2022-10-31T03:26:05;96798.09;;;5.57;100.00
2192;BME280;1102;49.718;11.902;2022-10-31T03:28:43;96787.22;;;5.26;100.00
2192;BME280;1102;49.718;11.902;2022-10-31T03:31:12;96777.72;;;5.30;100.00
2192;BME280;1102;49.718;11.902;2022-10-31T03:33:42;96789.16;;;5.40;100.00
2192;BME280;1102;49.718;11.902;2022-10-31T03:36:10;96806.63;;;5.49;100.00
2192;BME280;1102;49.718;11.902;2022-10-31T03:38:41;96804.50;;;5.51;100.00
2192;BME280;1102;49.718;11.902;2022-10-31T03:41:16;96802.47;;;5.43;100.00
2192;BME280;1102;49.718;11.902;2022-10-31T03:43:55;96801.09;;;5.51;100.00
2192;BME280;1102;49.718;11.902;2022-10-31T03:46:24;96811.13;;;5.44;100.00
2192;BME280;1102;49.718;11.902;2022-10-31T03:48:53;96766.56;;;5.20;100.00
2192;BME280;1102;49.718;11.902;2022-10-31T03:54:07;96761.50;;;5.28;100.00
2192;BME280;1102;49.718;11.902;2022-10-31T03:57:05;96814.56;;;5.63;100.00
2192;BME280;1102;49.718;11.902;2022-10-31T03:59:33;96791.00;;;5.39;100.00
2192;BME280;1102;49.718;11.902;2022-10-31T04:02:06;96770.94;;;5.29;100.00
2192;BME280;1102;49.718;11.902;2022-10-31T04:04:35;96786.88;;;5.33;100.00
2192;BME280;1102;49.718;11.902;2022-10-31T04:07:05;96812.25;;;5.38;100.00
2192;BME280;1102;49.718;11.902;2022-10-31T04:09:36;96787.91;;;5.13;100.00
2192;BME280;1102;49.718;11.902;2022-10-31T04:12:04;96798.78;;;5.25;100.00
2192;BME280;1102;49.718;11.902;2022-10-31T04:14:55;96746.19;;;4.93;100.00
2192;BME280;1102;49.718;11.902;2022-10-31T04:17:24;96759.75;;;5.00;100.00
2192;BME280;1102;49.718;11.902;2022-10-31T04:19:54;96797.41;;;5.28;100.00
2192;BME280;1102;49.718;11.902;2022-10-31T04:22:20;96782.53;;;5.23;100.00
2192;BME280;1102;49.718;11.902;2022-10-31T04:24:47;96794.81;;;5.28;100.00
2192;BME280;1102;49.718;11.902;2022-10-31T04:27:16;96752.09;;;5.03;100.00
2192;BME280;1102;49.718;11.902;2022-10-31T04:29:42;96753.66;;;5.04;100.00
2192;BME280;1102;49.718;11.902;2022-10-31T04:32:15;96734.63;;;4.94;100.00
2192;BME280;1102;49.718;11.902;2022-10-31T04:34:42;96794.13;;;5.17;100.00
2192;BME280;1102;49.718;11.902;2022-10-31T04:37:09;96750.22;;;4.85;100.00
2192;BME280;1102;49.718;11.902;2022-10-31T04:39:36;96799.09;;;5.19;100.00
2192;BME280;1102;49.718;11.902;2022-10-31T04:42:22;96768.09;;;5.02;100.00
2192;BME280;1102;49.718;11.902;2022-10-31T04:44:48;96740.22;;;4.87;100.00
2192;BME280;1102;49.718;11.902;2022-10-31T04:47:15;96805.28;;;5.28;100.00
2192;BME280;1102;49.718;11.902;2022-10-31T04:49:42;96787.81;;;5.18;100.00
2192;BME280;1102;49.718;11.902;2022-10-31T04:52:11;96782.75;;;5.27;100.00
2192;BME280;1102;49.718;11.902;2022-10-31T04:54:38;96804.28;;;5.48;100.00
2192;BME280;1102;49.718;11.902;2022-10-31T04:57:40;96797.59;;;5.37;100.00
2192;BME280;1102;49.718;11.902;2022-10-31T05:00:08;96799.59;;;4.97;100.00
2192;BME280;1102;49.718;11.902;2022-10-31T05:02:43;96760.88;;;4.41;100.00
2192;BME280;1102;49.718;11.902;2022-10-31T05:05:10;96769.47;;;4.70;100.00
2192;BME280;1102;49.718;11.902;2022-10-31T05:07:45;96716.81;;;4.48;100.00
2192;BME280;1102;49.718;11.902;2022-10-31T05:10:15;96796.22;;;4.96;100.00
2192;BME280;1102;49.718;11.902;2022-10-31T05:13:06;96797.41;;;5.04;100.00
2192;BME280;1102;49.718;11.902;2022-10-31T05:15:51;96786.38;;;5.07;100.00
2192;BME280;1102;49.718;11.902;2022-10-31T05:18:20;96778.41;;;4.93;100.00
2192;BME280;1102;49.718;11.902;2022-10-31T05:21:10;96778.41;;;4.93;100.00
2192;BME280;1102;49.718;11.902;2022-10-31T05:23:42;96740.41;;;4.72;100.00
2192;BME280;1102;49.718;11.902;2022-10-31T05:26:14;96781.94;;;4.84;100.00
2192;BME280;1102;49.718;11.902;2022-10-31T05:28:41;96735.13;;;4.48;100.00
2192;BME280;1102;49.718;11.902;2022-10-31T05:31:07;96761.22;;;4.58;100.00
2192;BME280;1102;49.718;11.902;2022-10-31T05:33:34;96781.75;;;4.75;100.00
2192;BME280;1102;49.718;11.902;2022-10-31T05:36:19;96777.78;;;4.78;100.00
2192;BME280;1102;49.718;11.902;2022-10-31T05:38:56;96777.06;;;4.72;100.00
2192;BME280;1102;49.718;11.902;2022-10-31T05:41:25;96743.59;;;4.64;100.00
2192;BME280;1102;49.718;11.902;2022-10-31T05:44:00;96779.13;;;4.99;100.00
2192;BME280;1102;49.718;11.902;2022-10-31T05:46:28;96767.09;;;4.98;100.00
2192;BME280;1102;49.718;11.902;2022-10-31T05:49:21;96748.53;;;4.94;100.00
2192;BME280;1102;49.718;11.902;2022-10-31T05:52:07;96758.19;;;4.99;100.00
2192;BME280;1102;49.718;11.902;2022-10-31T05:54:44;96736.94;;;4.77;100.00
2192;BME280;1102;49.718;11.902;2022-10-31T05:57:11;96757.06;;;4.81;100.00
2192;BME280;1102;49.718;11.902;2022-10-31T05:59:38;96759.44;;;4.78;100.00
2192;BME280;1102;49.718;11.902;2022-10-31T06:02:05;96795.34;;;5.01;100.00
2192;BME280;1102;49.718;11.902;2022-10-31T06:04:58;96731.00;;;4.66;100.00
2192;BME280;1102;49.718;11.902;2022-10-31T06:07:25;96716.88;;;4.43;100.00
2192;BME280;1102;49.718;11.902;2022-10-31T06:09:52;96755.38;;;4.66;100.00
2192;BME280;1102;49.718;11.902;2022-10-31T06:12:20;96756.66;;;4.69;100.00
2192;BME280;1102;49.718;11.902;2022-10-31T06:15:07;96793.03;;;4.99;100.00
2192;BME280;1102;49.718;11.902;2022-10-31T06:17:34;96772.69;;;4.62;100.00
2192;BME280;1102;49.718;11.902;2022-10-31T06:20:02;96769.00;;;4.68;100.00
2192;BME280;1102;49.718;11.902;2022-10-31T06:22:33;96772.44;;;4.88;100.00
2192;BME280;1102;49.718;11.902;2022-10-31T06:24:59;96809.91;;;5.12;100.00
2192;BME280;1102;49.718;11.902;2022-10-31T06:27:29;96740.50;;;4.62;100.00
2192;BME280;1102;49.718;11.902;2022-10-31T06:29:58;96814.16;;;5.08;100.00
2192;BME280;1102;49.718;11.902;2022-10-31T06:32:30;96772.31;;;4.74;100.00
2192;BME280;1102;49.718;11.902;2022-10-31T06:34:57;96812.53;;;4.88;100.00
2192;BME280;1102;49.718;11.902;2022-10-31T06:37:24;96790.31;;;4.81;100.00
2192;BME280;1102;49.718;11.902;2022-10-31T06:39:53;96755.28;;;4.48;100.00
2192;BME280;1102;49.718;11.902;2022-10-31T06:42:20;96746.81;;;4.32;100.00
2192;BME280;1102;49.718;11.902;2022-10-31T06:44:46;96809.22;;;4.78;100.00
2192;BME280;1102;49.718;11.902;2022-10-31T06:47:53;96808.53;;;4.96;100.00
2192;BME280;1102;49.718;11.902;2022-10-31T06:51:00;96813.13;;;5.04;100.00
2192;BME280;1102;49.718;11.902;2022-10-31T06:53:27;96727.75;;;4.55;100.00
2192;BME280;1102;49.718;11.902;2022-10-31T06:55:56;96818.84;;;5.11;100.00
2192;BME280;1102;49.718;11.902;2022-10-31T06:58:23;96823.75;;;5.18;100.00
2192;BME280;1102;49.718;11.902;2022-10-31T07:00:53;96782.09;;;4.92;100.00
2192;BME280;1102;49.718;11.902;2022-10-31T07:03:20;96825.25;;;5.24;100.00
2192;BME280;1102;49.718;11.902;2022-10-31T07:05:47;96755.59;;;4.70;100.00
2192;BME280;1102;49.718;11.902;2022-10-31T07:08:14;96830.25;;;5.20;100.00
2192;BME280;1102;49.718;11.902;2022-10-31T07:10:41;96833.28;;;5.32;100.00
2192;BME280;1102;49.718;11.902;2022-10-31T07:13:13;96836.69;;;5.33;100.00
2192;BME280;1102;49.718;11.902;2022-10-31T07:15:48;96817.13;;;5.25;100.00
2192;BME280;1102;49.718;11.902;2022-10-31T07:18:15;96841.38;;;5.36;100.00
2192;BME280;1102;49.718;11.902;2022-10-31T07:20:41;96789.75;;;5.13;100.00
2192;BME280;1102;49.718;11.902;2022-10-31T07:23:12;96771.09;;;5.14;100.00
2192;BME280;1102;49.718;11.902;2022-10-31T07:25:42;96793.63;;;5.39;100.00
2192;BME280;1102;49.718;11.902;2022-10-31T07:28:15;96824.09;;;5.78;100.00
2192;BME280;1102;49.718;11.902;2022-10-31T07:30:49;96825.38;;;5.80;100.00
2192;BME280;1102;49.718;11.902;2022-10-31T07:33:19;96814.78;;;5.67;100.00
2192;BME280;1102;49.718;11.902;2022-10-31T07:36:12;96818.06;;;5.77;100.00
2192;BME280;1102;49.718;11.902;2022-10-31T07:38:41;96787.28;;;5.64;100.00
2192;BME280;1102;49.718;11.902;2022-10-31T07:41:08;96794.00;;;5.70;100.00
2192;BME280;1102;49.718;11.902;2022-10-31T07:43:39;96820.50;;;5.92;100.00
2192;BME280;1102;49.718;11.902;2022-10-31T07:46:15;96771.19;;;5.89;100.00
2192;BME280;1102;49.718;11.902;2022-10-31T07:49:14;96803.25;;;6.24;100.00
2192;BME280;1102;49.718;11.902;2022-10-31T07:51:58;96808.53;;;6.38;100.00
2192;BME280;1102;49.718;11.902;2022-10-31T07:54:44;96801.53;;;6.33;100.00
2192;BME280;1102;49.718;11.902;2022-10-31T07:57:11;96784.47;;;6.17;100.00
2192;BME280;1102;49.718;11.902;2022-10-31T07:59:38;96768.47;;;6.13;100.00
2192;BME280;1102;49.718;11.902;2022-10-31T08:02:07;96788.81;;;6.40;100.00
2192;BME280;1102;49.718;11.902;2022-10-31T08:04:47;96797.09;;;6.47;100.00
2192;BME280;1102;49.718;11.902;2022-10-31T08:07:36;96775.50;;;6.50;100.00
2192;BME280;1102;49.718;11.902;2022-10-31T08:10:06;96811.88;;;6.76;100.00
2192;BME280;1102;49.718;11.902;2022-10-31T08:12:34;96781.56;;;6.65;100.00
2192;BME280;1102;49.718;11.902;2022-10-31T08:15:03;96794.75;;;7.06;100.00
2192;BME280;1102;49.718;11.902;2022-10-31T08:17:29;96771.59;;;7.08;100.00
2192;BME280;1102;49.718;11.902;2022-10-31T08:19:58;96791.25;;;7.52;100.00
2192;BME280;1102;49.718;11.902;2022-10-31T08:22:32;96777.97;;;7.57;100.00
2192;BME280;1102;49.718;11.902;2022-10-31T08:25:00;96826.44;;;8.06;100.00
2192;BME280;1102;49.718;11.902;2022-10-31T08:27:27;96781.16;;;7.81;100.00
2192;BME280;1102;49.718;11.902;2022-10-31T08:29:57;96793.53;;;7.81;100.00
2192;BME280;1102;49.718;11.902;2022-10-31T08:32:24;96801.56;;;7.98;100.00
2192;BME280;1102;49.718;11.902;2022-10-31T08:34:51;96774.22;;;7.85;100.00
2192;BME280;1102;49.718;11.902;2022-10-31T08:37:36;96783.16;;;7.98;100.00
2192;BME280;1102;49.718;11.902;2022-10-31T08:40:05;96815.59;;;8.43;100.00
2192;BME280;1102;49.718;11.902;2022-10-31T08:42:34;96783.69;;;8.09;100.00
2192;BME280;1102;49.718;11.902;2022-10-31T08:45:01;96779.63;;;8.03;100.00
2192;BME280;1102;49.718;11.902;2022-10-31T08:47:29;96783.53;;;8.05;100.00
2192;BME280;1102;49.718;11.902;2022-10-31T08:49:57;96813.75;;;8.44;100.00
2192;BME280;1102;49.718;11.902;2022-10-31T08:52:24;96776.38;;;8.42;100.00
2192;BME280;1102;49.718;11.902;2022-10-31T08:55:11;96784.28;;;8.42;100.00
2192;BME280;1102;49.718;11.902;2022-10-31T08:58:13;96751.81;;;8.33;100.00
2192;BME280;1102;49.718;11.902;2022-10-31T09:00:48;96797.31;;;8.69;100.00
2192;BME280;1102;49.718;11.902;2022-10-31T09:03:22;96747.25;;;8.47;100.00
2192;BME280;1102;49.718;11.902;2022-10-31T09:05:49;96786.94;;;8.73;100.00
2192;BME280;1102;49.718;11.902;2022-10-31T09:08:16;96781.38;;;8.74;100.00
2192;BME280;1102;49.718;11.902;2022-10-31T09:10:45;96787.31;;;8.88;100.00
2192;BME280;1102;49.718;11.902;2022-10-31T09:13:20;96787.69;;;9.04;100.00
2192;BME280;1102;49.718;11.902;2022-10-31T09:16:08;96729.00;;;8.81;100.00
2192;BME280;1102;49.718;11.902;2022-10-31T09:18:35;96773.31;;;9.10;100.00
2192;BME280;1102;49.718;11.902;2022-10-31T09:21:01;96709.72;;;8.72;100.00
2192;BME280;1102;49.718;11.902;2022-10-31T09:23:30;96769.00;;;9.23;100.00
2192;BME280;1102;49.718;11.902;2022-10-31T09:25:59;96794.84;;;9.52;100.00
2192;BME280;1102;49.718;11.902;2022-10-31T09:28:30;96792.22;;;9.69;100.00
2192;BME280;1102;49.718;11.902;2022-10-31T09:31:04;96725.25;;;9.48;100.00
2192;BME280;1102;49.718;11.902;2022-10-31T09:33:46;96758.38;;;9.80;100.00
2192;BME280;1102;49.718;11.902;2022-10-31T09:36:48;96750.75;;;9.87;100.00
2192;BME280;1102;49.718;11.902;2022-10-31T09:39:19;96759.03;;;10.03;100.00
2192;BME280;1102;49.718;11.902;2022-10-31T09:42:09;96761.19;;;10.27;100.00
2192;BME280;1102;49.718;11.902;2022-10-31T09:48:01;96798.69;;;10.93;100.00
2192;BME280;1102;49.718;11.902;2022-10-31T09:50:53;96795.25;;;11.01;100.00
2192;BME280;1102;49.718;11.902;2022-10-31T09:53:43;96790.53;;;11.07;100.00
2192;BME280;1102;49.718;11.902;2022-10-31T09:56:19;96794.06;;;11.19;100.00
2192;BME280;1102;49.718;11.902;2022-10-31T09:58:54;96795.91;;;11.36;100.00
2192;BME280;1102;49.718;11.902;2022-10-31T10:06:53;96752.38;;;11.96;100.00
2192;BME280;1102;49.718;11.902;2022-10-31T10:09:46;96744.94;;;11.90;100.00
2192;BME280;1102;49.718;11.902;2022-10-31T10:15:26;96790.19;;;12.38;100.00
2192;BME280;1102;49.718;11.902;2022-10-31T10:18:22;96783.69;;;12.36;100.00
2192;BME280;1102;49.718;11.902;2022-10-31T10:20:51;96782.75;;;12.53;100.00
2192;BME280;1102;49.718;11.902;2022-10-31T10:23:51;96774.31;;;12.84;100.00
2192;BME280;1102;49.718;11.902;2022-10-31T10:26:30;96744.03;;;13.09;100.00
2192;BME280;1102;49.718;11.902;2022-10-31T10:29:10;96780.47;;;13.45;100.00
2192;BME280;1102;49.718;11.902;2022-10-31T10:31:42;96758.19;;;13.62;100.00
2192;BME280;1102;49.718;11.902;2022-10-31T10:34:22;96776.31;;;13.84;100.00
2192;BME280;1102;49.718;11.902;2022-10-31T10:39:35;96769.53;;;13.87;100.00
2192;BME280;1102;49.718;11.902;2022-10-31T10:42:11;96744.84;;;13.86;100.00
2192;BME280;1102;49.718;11.902;2022-10-31T10:44:57;96700.28;;;13.68;100.00
2192;BME280;1102;49.718;11.902;2022-10-31T10:47:44;96703.97;;;13.63;100.00
2192;BME280;1102;49.718;11.902;2022-10-31T10:50:24;96763.25;;;14.19;100.00
2192;BME280;1102;49.718;11.902;2022-10-31T10:55:55;96757.88;;;14.32;100.00
2192;BME280;1102;49.718;11.902;2022-10-31T10:58:24;96727.34;;;14.13;100.00
2192;BME280;1102;49.718;11.902;2022-10-31T11:00:54;96612.00;;;13.46;100.00
2192;BME280;1102;49.718;11.902;2022-10-31T11:03:21;96754.47;;;14.31;100.00
2192;BME280;1102;49.718;11.902;2022-10-31T11:08:25;96718.38;;;14.18;100.00
2192;BME280;1102;49.718;11.902;2022-10-31T11:13:29;96740.94;;;14.52;100.00
2192;BME280;1102;49.718;11.902;2022-10-31T11:15:59;96734.72;;;14.60;100.00
2192;BME280;1102;49.718;11.902;2022-10-31T11:18:38;96736.25;;;15.24;100.00
2192;BME280;1102;49.718;11.902;2022-10-31T11:21:09;96628.16;;;14.72;100.00
2192;BME280;1102;49.718;11.902;2022-10-31T11:23:45;96736.72;;;15.61;100.00
2192;BME280;1102;49.718;11.902;2022-10-31T11:26:20;96731.13;;;15.66;100.00
2192;BME280;1102;49.718;11.902;2022-10-31T11:28:57;96724.75;;;15.55;100.00
2192;BME280;1102;49.718;11.902;2022-10-31T11:31:26;96724.59;;;15.64;100.00
2192;BME280;1102;49.718;11.902;2022-10-31T11:34:02;96682.22;;;15.43;100.00
2192;BME280;1102;49.718;11.902;2022-10-31T11:36:31;96713.38;;;15.74;100.00
2192;BME280;1102;49.718;11.902;2022-10-31T11:39:02;96717.09;;;15.89;100.00
2192;BME280;1102;49.718;11.902;2022-10-31T11:41:34;96704.56;;;15.89;100.00
2192;BME280;1102;49.718;11.902;2022-10-31T11:44:12;96685.09;;;15.89;100.00
2192;BME280;1102;49.718;11.902;2022-10-31T11:46:42;96662.44;;;15.99;100.00
2192;BME280;1102;49.718;11.902;2022-10-31T11:49:18;96696.31;;;16.17;100.00
2192;BME280;1102;49.718;11.902;2022-10-31T11:51:50;96674.22;;;16.17;100.00
2192;BME280;1102;49.718;11.902;2022-10-31T11:54:30;96697.22;;;16.67;100.00
2192;BME280;1102;49.718;11.902;2022-10-31T11:56:58;96666.44;;;16.73;100.00
2192;BME280;1102;49.718;11.902;2022-10-31T11:59:30;96662.91;;;16.46;100.00
2192;BME280;1102;49.718;11.902;2022-10-31T12:01:59;96651.88;;;16.48;100.00
2192;BME280;1102;49.718;11.902;2022-10-31T12:04:38;96651.34;;;16.84;100.00
2192;BME280;1102;49.718;11.902;2022-10-31T12:07:06;96677.59;;;17.32;100.00
2192;BME280;1102;49.718;11.902;2022-10-31T12:09:35;96667.88;;;17.47;100.00
2192;BME280;1102;49.718;11.902;2022-10-31T12:15:21;96676.16;;;17.98;100.00
2192;BME280;1102;49.718;11.902;2022-10-31T12:21:12;96650.88;;;17.62;100.00
2192;BME280;1102;49.718;11.902;2022-10-31T12:23:45;96662.91;;;17.75;100.00
2192;BME280;1102;49.718;11.902;2022-10-31T12:26:23;96656.97;;;17.62;100.00
2192;BME280;1102;49.718;11.902;2022-10-31T12:29:11;96655.66;;;17.49;100.00
2192;BME280;1102;49.718;11.902;2022-10-31T12:32:17;96635.78;;;17.47;100.00
2192;BME280;1102;49.718;11.902;2022-10-31T12:37:37;96628.41;;;17.66;100.00
2192;BME280;1102;49.718;11.902;2022-10-31T12:43:40;96639.84;;;17.97;100.00
2192;BME280;1102;49.718;11.902;2022-10-31T12:46:16;96619.22;;;17.97;100.00
2192;BME280;1102;49.718;11.902;2022-10-31T12:49:04;96644.22;;;18.16;100.00
2192;BME280;1102;49.718;11.902;2022-10-31T12:54:19;96600.31;;;18.20;100.00
2192;BME280;1102;49.718;11.902;2022-10-31T12:59:52;96577.34;;;18.64;100.00
2192;BME280;1102;49.718;11.902;2022-10-31T13:02:46;96623.53;;;19.01;100.00
2192;BME280;1102;49.718;11.902;2022-10-31T13:07:50;96595.72;;;19.24;100.00
2192;BME280;1102;49.718;11.902;2022-10-31T13:10:36;96627.69;;;19.61;100.00
2192;BME280;1102;49.718;11.902;2022-10-31T13:13:25;96598.84;;;19.40;100.00
2192;BME280;1102;49.718;11.902;2022-10-31T13:15:58;96610.41;;;19.51;100.00
2192;BME280;1102;49.718;11.902;2022-10-31T13:18:40;96547.47;;;19.34;100.00
2192;BME280;1102;49.718;11.902;2022-10-31T13:21:15;96600.16;;;19.71;100.00
2192;BME280;1102;49.718;11.902;2022-10-31T13:23:45;96621.22;;;19.76;100.00
2192;BME280;1102;49.718;11.902;2022-10-31T13:26:40;96610.88;;;19.71;100.00
2192;BME280;1102;49.718;11.902;2022-10-31T13:29:33;96600.06;;;19.53;100.00
2192;BME280;1102;49.718;11.902;2022-10-31T13:32:06;96575.41;;;19.23;100.00
2192;BME280;1102;49.718;11.902;2022-10-31T13:34:40;96599.81;;;19.03;100.00
2192;BME280;1102;49.718;11.902;2022-10-31T13:37:27;96586.69;;;18.84;100.00
2192;BME280;1102;49.718;11.902;2022-10-31T13:43:13;96562.50;;;18.73;100.00
2192;BME280;1102;49.718;11.902;2022-10-31T13:45:51;96582.03;;;18.74;100.00
2192;BME280;1102;49.718;11.902;2022-10-31T13:48:34;96541.94;;;18.37;100.00
2192;BME280;1102;49.718;11.902;2022-10-31T13:51:06;96556.38;;;18.25;100.00
2192;BME280;1102;49.718;11.902;2022-10-31T13:56:31;96537.38;;;17.93;100.00
2192;BME280;1102;49.718;11.902;2022-10-31T14:01:36;96557.94;;;17.85;100.00
2192;BME280;1102;49.718;11.902;2022-10-31T14:12:23;96541.94;;;17.55;100.00
2192;BME280;1102;49.718;11.902;2022-10-31T14:14:55;96532.25;;;17.43;100.00
2192;BME280;1102;49.718;11.902;2022-10-31T14:17:27;96478.03;;;17.09;100.00
2192;BME280;1102;49.718;11.902;2022-10-31T14:22:31;96510.53;;;17.15;100.00
2192;BME280;1102;49.718;11.902;2022-10-31T14:25:00;96507.44;;;17.09;100.00
2192;BME280;1102;49.718;11.902;2022-10-31T14:29:54;96509.13;;;16.95;100.00
2192;BME280;1102;49.718;11.902;2022-10-31T14:32:25;96478.66;;;16.69;100.00
2192;BME280;1102;49.718;11.902;2022-10-31T14:34:57;96510.84;;;16.80;100.00
2192;BME280;1102;49.718;11.902;2022-10-31T14:37:57;96496.97;;;16.67;100.00
2192;BME280;1102;49.718;11.902;2022-10-31T14:40:49;96514.84;;;16.67;100.00
2192;BME280;1102;49.718;11.902;2022-10-31T14:43:34;96504.84;;;16.60;100.00
2192;BME280;1102;49.718;11.902;2022-10-31T14:51:22;96504.09;;;16.60;100.00
2192;BME280;1102;49.718;11.902;2022-10-31T14:53:54;96459.38;;;16.26;100.00
2192;BME280;1102;49.718;11.902;2022-10-31T14:58:53;96481.75;;;16.18;100.00
2192;BME280;1102;49.718;11.902;2022-10-31T15:01:30;96468.56;;;15.80;100.00
2192;BME280;1102;49.718;11.902;2022-10-31T15:04:02;96475.66;;;15.72;100.00
2192;BME280;1102;49.718;11.902;2022-10-31T15:06:59;96490.94;;;15.75;100.00
2192;BME280;1102;49.718;11.902;2022-10-31T15:09:32;96423.97;;;15.34;100.00
2192;BME280;1102;49.718;11.902;2022-10-31T15:11:59;96480.41;;;15.59;100.00
2192;BME280;1102;49.718;11.902;2022-10-31T15:14:30;96469.59;;;15.52;100.00
2192;BME280;1102;49.718;11.902;2022-10-31T15:16:59;96463.94;;;15.34;100.00
2192;BME280;1102;49.718;11.902;2022-10-31T15:19:29;96460.03;;;15.28;100.00
2192;BME280;1102;49.718;11.902;2022-10-31T15:21:57;96472.44;;;15.40;100.00
2192;BME280;1102;49.718;11.902;2022-10-31T15:24:32;96477.97;;;15.31;100.00
2192;BME280;1102;49.718;11.902;2022-10-31T15:27:20;96471.03;;;15.27;100.00
2192;BME280;1102;49.718;11.902;2022-10-31T15:29:56;96454.28;;;15.07;100.00